Terminal Aerodrome Forecast
Issued by NWS

Current Version | Previous Version | Graphics & Text | Print | Product List | Glossary On
Versions: 1 2 3 4 5 6 7 8 9 10 11 12 13 14 15 16 17 18 19 20 21 22 23 24 25 26 27 28 29 30 31 32
000
FTUS41 KPBZ 221500 AAB
TAFHLG
TAF AMD
KHLG 221503Z 2215/2312 VRB03KT P6SM SCT008 BKN015
      TEMPO 2215/2216 BKN008
     FM221700 21005KT P6SM VCSH BKN020
     FM221900 20005KT P6SM VCSH BKN035
     FM230700 VRB03KT 2SM BR SCT030=

USA.gov is the U.S. government's official web portal to all federal, state and local government web resources and services.